sensor_id;sensor_type;location;lat;lon;timestamp;temperature;humidity
24260;DHT22;12384;48.112;18.418;2023-05-07T00:02:13;12.40;94.50
24260;DHT22;12384;48.112;18.418;2023-05-07T00:04:42;12.40;94.80
24260;DHT22;12384;48.112;18.418;2023-05-07T00:07:12;12.40;95.10
24260;DHT22;12384;48.112;18.418;2023-05-07T00:09:40;12.40;95.30
24260;DHT22;12384;48.112;18.418;2023-05-07T00:12:09;12.30;95.30
24260;DHT22;12384;48.112;18.418;2023-05-07T00:14:38;12.30;95.40
24260;DHT22;12384;48.112;18.418;2023-05-07T00:17:06;12.30;95.60
24260;DHT22;12384;48.112;18.418;2023-05-07T00:19:35;12.30;96.20
24260;DHT22;12384;48.112;18.418;2023-05-07T00:22:03;12.30;96.10
24260;DHT22;12384;48.112;18.418;2023-05-07T00:24:33;12.30;96.30
24260;DHT22;12384;48.112;18.418;2023-05-07T00:27:01;12.30;96.40
24260;DHT22;12384;48.112;18.418;2023-05-07T00:29:30;12.20;96.60
24260;DHT22;12384;48.112;18.418;2023-05-07T00:31:58;12.20;96.90
24260;DHT22;12384;48.112;18.418;2023-05-07T00:34:27;12.20;97.30
24260;DHT22;12384;48.112;18.418;2023-05-07T00:36:55;12.20;97.50
24260;DHT22;12384;48.112;18.418;2023-05-07T00:39:24;12.20;97.70
24260;DHT22;12384;48.112;18.418;2023-05-07T00:41:53;12.30;98.00
24260;DHT22;12384;48.112;18.418;2023-05-07T00:44:22;12.30;98.10
24260;DHT22;12384;48.112;18.418;2023-05-07T00:46:50;12.20;98.10
24260;DHT22;12384;48.112;18.418;2023-05-07T00:49:19;12.20;98.20
24260;DHT22;12384;48.112;18.418;2023-05-07T00:51:48;12.20;98.20
24260;DHT22;12384;48.112;18.418;2023-05-07T00:54:18;12.20;98.30
24260;DHT22;12384;48.112;18.418;2023-05-07T00:56:46;12.20;97.60
24260;DHT22;12384;48.112;18.418;2023-05-07T00:59:16;12.20;97.60
24260;DHT22;12384;48.112;18.418;2023-05-07T01:01:45;12.10;97.80
24260;DHT22;12384;48.112;18.418;2023-05-07T01:04:13;12.10;97.80
24260;DHT22;12384;48.112;18.418;2023-05-07T01:06:43;12.00;97.70
24260;DHT22;12384;48.112;18.418;2023-05-07T01:09:13;12.00;97.80
24260;DHT22;12384;48.112;18.418;2023-05-07T01:11:42;12.00;98.10
24260;DHT22;12384;48.112;18.418;2023-05-07T01:14:11;11.90;98.50
24260;DHT22;12384;48.112;18.418;2023-05-07T01:16:41;11.90;98.80
24260;DHT22;12384;48.112;18.418;2023-05-07T01:19:11;11.90;99.20
24260;DHT22;12384;48.112;18.418;2023-05-07T01:21:46;11.90;99.50
24260;DHT22;12384;48.112;18.418;2023-05-07T01:24:18;11.90;99.90
24260;DHT22;12384;48.112;18.418;2023-05-07T01:26:47;11.90;99.90
24260;DHT22;12384;48.112;18.418;2023-05-07T01:29:17;11.90;99.90
24260;DHT22;12384;48.112;18.418;2023-05-07T01:31:49;11.90;99.90
24260;DHT22;12384;48.112;18.418;2023-05-07T01:34:20;11.90;99.90
24260;DHT22;12384;48.112;18.418;2023-05-07T01:36:49;11.90;99.90
24260;DHT22;12384;48.112;18.418;2023-05-07T01:39:20;11.90;99.90
24260;DHT22;12384;48.112;18.418;2023-05-07T01:41:49;11.90;99.90
24260;DHT22;12384;48.112;18.418;2023-05-07T01:44:18;11.90;99.90
24260;DHT22;12384;48.112;18.418;2023-05-07T01:46:47;11.90;99.90
24260;DHT22;12384;48.112;18.418;2023-05-07T01:49:17;11.80;99.90
24260;DHT22;12384;48.112;18.418;2023-05-07T01:51:45;11.80;99.90
24260;DHT22;12384;48.112;18.418;2023-05-07T01:54:14;11.80;99.90
24260;DHT22;12384;48.112;18.418;2023-05-07T01:56:45;11.80;99.90
24260;DHT22;12384;48.112;18.418;2023-05-07T01:59:15;11.80;99.90
24260;DHT22;12384;48.112;18.418;2023-05-07T02:01:44;11.80;99.90
24260;DHT22;12384;48.112;18.418;2023-05-07T02:04:13;11.80;99.90
24260;DHT22;12384;48.112;18.418;2023-05-07T02:06:41;11.70;99.90
24260;DHT22;12384;48.112;18.418;2023-05-07T02:09:11;11.70;99.90
24260;DHT22;12384;48.112;18.418;2023-05-07T02:11:41;11.60;99.90
24260;DHT22;12384;48.112;18.418;2023-05-07T02:14:11;11.60;99.90
24260;DHT22;12384;48.112;18.418;2023-05-07T02:16:40;11.60;99.90
24260;DHT22;12384;48.112;18.418;2023-05-07T02:19:11;11.50;99.90
24260;DHT22;12384;48.112;18.418;2023-05-07T02:21:39;11.50;99.90
24260;DHT22;12384;48.112;18.418;2023-05-07T02:24:08;11.50;99.90
24260;DHT22;12384;48.112;18.418;2023-05-07T02:26:36;11.40;99.60
24260;DHT22;12384;48.112;18.418;2023-05-07T02:29:05;11.30;99.40
24260;DHT22;12384;48.112;18.418;2023-05-07T02:31:35;11.30;99.60
24260;DHT22;12384;48.112;18.418;2023-05-07T02:34:03;11.20;99.60
24260;DHT22;12384;48.112;18.418;2023-05-07T02:36:32;11.20;99.70
24260;DHT22;12384;48.112;18.418;2023-05-07T02:39:06;11.10;99.70
24260;DHT22;12384;48.112;18.418;2023-05-07T02:41:34;11.10;99.90
24260;DHT22;12384;48.112;18.418;2023-05-07T02:44:03;11.10;99.90
24260;DHT22;12384;48.112;18.418;2023-05-07T02:46:32;11.00;99.90
24260;DHT22;12384;48.112;18.418;2023-05-07T02:49:07;11.00;99.90
24260;DHT22;12384;48.112;18.418;2023-05-07T02:51:36;10.90;99.90
24260;DHT22;12384;48.112;18.418;2023-05-07T02:54:10;10.90;99.90
24260;DHT22;12384;48.112;18.418;2023-05-07T02:56:39;10.90;99.90
24260;DHT22;12384;48.112;18.418;2023-05-07T02:59:07;10.90;99.90
24260;DHT22;12384;48.112;18.418;2023-05-07T03:01:39;10.90;99.90
24260;DHT22;12384;48.112;18.418;2023-05-07T03:04:13;10.80;99.90
24260;DHT22;12384;48.112;18.418;2023-05-07T03:06:43;10.80;99.90
24260;DHT22;12384;48.112;18.418;2023-05-07T03:09:11;10.80;99.90
24260;DHT22;12384;48.112;18.418;2023-05-07T03:11:40;10.80;99.90
24260;DHT22;12384;48.112;18.418;2023-05-07T03:14:08;10.80;99.90
24260;DHT22;12384;48.112;18.418;2023-05-07T03:16:37;10.80;99.90
24260;DHT22;12384;48.112;18.418;2023-05-07T03:19:06;10.70;99.90
24260;DHT22;12384;48.112;18.418;2023-05-07T03:21:36;10.80;99.90
24260;DHT22;12384;48.112;18.418;2023-05-07T03:24:05;10.70;99.90
24260;DHT22;12384;48.112;18.418;2023-05-07T03:26:33;10.70;99.90
24260;DHT22;12384;48.112;18.418;2023-05-07T03:29:02;10.70;99.90
24260;DHT22;12384;48.112;18.418;2023-05-07T03:31:31;10.70;99.90
24260;DHT22;12384;48.112;18.418;2023-05-07T03:34:01;10.70;99.90
24260;DHT22;12384;48.112;18.418;2023-05-07T03:36:29;10.70;99.90
24260;DHT22;12384;48.112;18.418;2023-05-07T03:39:00;10.70;99.90
24260;DHT22;12384;48.112;18.418;2023-05-07T03:41:36;10.80;99.90
24260;DHT22;12384;48.112;18.418;2023-05-07T03:44:04;10.80;99.90
24260;DHT22;12384;48.112;18.418;2023-05-07T03:46:33;10.80;99.90
24260;DHT22;12384;48.112;18.418;2023-05-07T03:49:02;10.90;99.90
24260;DHT22;12384;48.112;18.418;2023-05-07T03:51:31;10.90;99.90
24260;DHT22;12384;48.112;18.418;2023-05-07T03:54:01;10.90;99.90
24260;DHT22;12384;48.112;18.418;2023-05-07T03:56:31;10.90;99.90
24260;DHT22;12384;48.112;18.418;2023-05-07T03:59:00;11.00;99.90
24260;DHT22;12384;48.112;18.418;2023-05-07T04:01:28;11.10;99.90
24260;DHT22;12384;48.112;18.418;2023-05-07T04:03:57;11.10;99.90
24260;DHT22;12384;48.112;18.418;2023-05-07T04:06:26;11.20;99.90
24260;DHT22;12384;48.112;18.418;2023-05-07T04:08:54;11.30;99.90
24260;DHT22;12384;48.112;18.418;2023-05-07T04:11:24;11.40;99.90
24260;DHT22;12384;48.112;18.418;2023-05-07T04:13:54;11.40;99.90
24260;DHT22;12384;48.112;18.418;2023-05-07T04:16:23;11.40;99.90
24260;DHT22;12384;48.112;18.418;2023-05-07T04:18:52;11.50;99.90
24260;DHT22;12384;48.112;18.418;2023-05-07T04:21:21;11.50;99.90
24260;DHT22;12384;48.112;18.418;2023-05-07T04:23:50;11.60;99.90
24260;DHT22;12384;48.112;18.418;2023-05-07T04:26:19;11.60;99.90
24260;DHT22;12384;48.112;18.418;2023-05-07T04:28:50;11.70;99.90
24260;DHT22;12384;48.112;18.418;2023-05-07T04:31:18;11.80;99.90
24260;DHT22;12384;48.112;18.418;2023-05-07T04:33:51;11.80;99.90
24260;DHT22;12384;48.112;18.418;2023-05-07T04:36:20;11.90;99.90
24260;DHT22;12384;48.112;18.418;2023-05-07T04:38:54;12.00;99.90
24260;DHT22;12384;48.112;18.418;2023-05-07T04:41:22;12.10;99.90
24260;DHT22;12384;48.112;18.418;2023-05-07T04:43:53;12.20;99.90
24260;DHT22;12384;48.112;18.418;2023-05-07T04:46:24;12.30;99.90
24260;DHT22;12384;48.112;18.418;2023-05-07T04:48:55;12.30;99.90
24260;DHT22;12384;48.112;18.418;2023-05-07T04:51:24;12.40;99.90
24260;DHT22;12384;48.112;18.418;2023-05-07T04:53:53;12.50;99.90
24260;DHT22;12384;48.112;18.418;2023-05-07T04:56:21;12.60;99.90
24260;DHT22;12384;48.112;18.418;2023-05-07T04:58:50;12.70;99.90
24260;DHT22;12384;48.112;18.418;2023-05-07T05:01:22;12.90;99.90
24260;DHT22;12384;48.112;18.418;2023-05-07T05:03:51;13.10;99.90
24260;DHT22;12384;48.112;18.418;2023-05-07T05:06:20;13.20;99.90
24260;DHT22;12384;48.112;18.418;2023-05-07T05:08:50;13.30;99.90
24260;DHT22;12384;48.112;18.418;2023-05-07T05:11:18;13.50;99.90
24260;DHT22;12384;48.112;18.418;2023-05-07T05:13:48;13.60;99.90
24260;DHT22;12384;48.112;18.418;2023-05-07T05:16:19;13.80;99.90
24260;DHT22;12384;48.112;18.418;2023-05-07T05:18:50;13.90;99.90
24260;DHT22;12384;48.112;18.418;2023-05-07T05:21:19;14.00;99.90
24260;DHT22;12384;48.112;18.418;2023-05-07T05:23:52;14.10;99.90
24260;DHT22;12384;48.112;18.418;2023-05-07T05:26:24;14.20;99.90
24260;DHT22;12384;48.112;18.418;2023-05-07T05:28:53;14.40;99.90
24260;DHT22;12384;48.112;18.418;2023-05-07T05:31:23;14.50;99.90
24260;DHT22;12384;48.112;18.418;2023-05-07T05:33:53;14.60;99.90
24260;DHT22;12384;48.112;18.418;2023-05-07T05:36:22;14.80;99.90
24260;DHT22;12384;48.112;18.418;2023-05-07T05:38:55;14.90;99.90
24260;DHT22;12384;48.112;18.418;2023-05-07T05:41:23;15.20;99.90
24260;DHT22;12384;48.112;18.418;2023-05-07T05:43:52;15.50;99.90
24260;DHT22;12384;48.112;18.418;2023-05-07T05:46:21;15.80;99.90
24260;DHT22;12384;48.112;18.418;2023-05-07T05:48:52;16.20;99.90
24260;DHT22;12384;48.112;18.418;2023-05-07T05:51:21;16.70;99.90
24260;DHT22;12384;48.112;18.418;2023-05-07T05:53:50;17.00;99.90
24260;DHT22;12384;48.112;18.418;2023-05-07T05:56:19;17.30;99.90
24260;DHT22;12384;48.112;18.418;2023-05-07T05:58:48;17.50;99.90
24260;DHT22;12384;48.112;18.418;2023-05-07T06:01:17;17.60;99.90
24260;DHT22;12384;48.112;18.418;2023-05-07T06:03:48;17.60;99.90
24260;DHT22;12384;48.112;18.418;2023-05-07T06:06:18;17.60;99.90
24260;DHT22;12384;48.112;18.418;2023-05-07T06:08:47;17.60;99.90
24260;DHT22;12384;48.112;18.418;2023-05-07T06:11:21;17.60;99.70
24260;DHT22;12384;48.112;18.418;2023-05-07T06:13:49;17.60;98.80
24260;DHT22;12384;48.112;18.418;2023-05-07T06:16:18;17.60;98.20
24260;DHT22;12384;48.112;18.418;2023-05-07T06:18:48;17.60;98.10
24260;DHT22;12384;48.112;18.418;2023-05-07T06:21:18;17.70;97.70
24260;DHT22;12384;48.112;18.418;2023-05-07T06:23:47;18.00;99.90
24260;DHT22;12384;48.112;18.418;2023-05-07T06:26:16;18.50;99.90
24260;DHT22;12384;48.112;18.418;2023-05-07T06:28:47;19.30;99.90
24260;DHT22;12384;48.112;18.418;2023-05-07T06:31:17;20.10;99.90
24260;DHT22;12384;48.112;18.418;2023-05-07T06:33:58;20.90;99.90
24260;DHT22;12384;48.112;18.418;2023-05-07T06:36:37;21.80;99.90
24260;DHT22;12384;48.112;18.418;2023-05-07T06:39:17;22.70;99.90
24260;DHT22;12384;48.112;18.418;2023-05-07T06:41:45;23.60;98.50
24260;DHT22;12384;48.112;18.418;2023-05-07T06:44:24;24.40;93.00
24260;DHT22;12384;48.112;18.418;2023-05-07T06:47:18;25.10;85.40
24260;DHT22;12384;48.112;18.418;2023-05-07T06:49:51;25.80;78.70
24260;DHT22;12384;48.112;18.418;2023-05-07T06:52:24;26.50;74.80
24260;DHT22;12384;48.112;18.418;2023-05-07T06:54:54;27.10;69.70
24260;DHT22;12384;48.112;18.418;2023-05-07T06:57:25;27.40;64.30
24260;DHT22;12384;48.112;18.418;2023-05-07T06:59:53;27.50;60.50
24260;DHT22;12384;48.112;18.418;2023-05-07T07:02:22;27.60;58.90
24260;DHT22;12384;48.112;18.418;2023-05-07T07:04:51;27.70;57.60
24260;DHT22;12384;48.112;18.418;2023-05-07T07:07:19;27.80;56.90
24260;DHT22;12384;48.112;18.418;2023-05-07T07:09:51;27.90;56.10
24260;DHT22;12384;48.112;18.418;2023-05-07T07:12:20;28.00;55.20
24260;DHT22;12384;48.112;18.418;2023-05-07T07:14:49;28.10;54.50
24260;DHT22;12384;48.112;18.418;2023-05-07T07:17:18;28.10;53.20
24260;DHT22;12384;48.112;18.418;2023-05-07T07:19:47;28.10;52.60
24260;DHT22;12384;48.112;18.418;2023-05-07T07:22:15;28.20;52.80
24260;DHT22;12384;48.112;18.418;2023-05-07T07:24:43;28.50;53.00
24260;DHT22;12384;48.112;18.418;2023-05-07T07:27:16;28.90;52.80
24260;DHT22;12384;48.112;18.418;2023-05-07T07:29:44;29.40;52.50
24260;DHT22;12384;48.112;18.418;2023-05-07T07:32:13;29.90;51.80
24260;DHT22;12384;48.112;18.418;2023-05-07T07:34:42;30.50;51.10
24260;DHT22;12384;48.112;18.418;2023-05-07T07:37:11;31.00;50.30
24260;DHT22;12384;48.112;18.418;2023-05-07T07:39:41;31.40;49.30
24260;DHT22;12384;48.112;18.418;2023-05-07T07:42:11;31.80;48.30
24260;DHT22;12384;48.112;18.418;2023-05-07T07:44:40;32.10;47.10
24260;DHT22;12384;48.112;18.418;2023-05-07T07:47:11;32.40;46.20
24260;DHT22;12384;48.112;18.418;2023-05-07T07:49:41;32.60;45.60
24260;DHT22;12384;48.112;18.418;2023-05-07T07:52:10;32.90;44.80
24260;DHT22;12384;48.112;18.418;2023-05-07T07:54:41;33.10;44.40
24260;DHT22;12384;48.112;18.418;2023-05-07T07:57:10;33.30;43.10
24260;DHT22;12384;48.112;18.418;2023-05-07T07:59:40;33.50;42.20
24260;DHT22;12384;48.112;18.418;2023-05-07T08:02:11;33.60;41.30
24260;DHT22;12384;48.112;18.418;2023-05-07T08:04:40;33.70;40.40
24260;DHT22;12384;48.112;18.418;2023-05-07T08:07:11;33.70;39.80
24260;DHT22;12384;48.112;18.418;2023-05-07T08:09:42;33.80;39.40
24260;DHT22;12384;48.112;18.418;2023-05-07T08:12:11;33.90;39.10
24260;DHT22;12384;48.112;18.418;2023-05-07T08:14:42;33.90;38.70
24260;DHT22;12384;48.112;18.418;2023-05-07T08:17:10;33.90;38.30
24260;DHT22;12384;48.112;18.418;2023-05-07T08:19:40;33.90;35.30
24260;DHT22;12384;48.112;18.418;2023-05-07T08:22:11;33.70;33.90
24260;DHT22;12384;48.112;18.418;2023-05-07T08:24:40;33.80;34.90
24260;DHT22;12384;48.112;18.418;2023-05-07T08:27:09;33.70;35.30
24260;DHT22;12384;48.112;18.418;2023-05-07T08:29:40;33.80;35.60
24260;DHT22;12384;48.112;18.418;2023-05-07T08:32:10;33.80;35.10
24260;DHT22;12384;48.112;18.418;2023-05-07T08:34:39;33.90;34.70
24260;DHT22;12384;48.112;18.418;2023-05-07T08:37:07;34.00;34.30
24260;DHT22;12384;48.112;18.418;2023-05-07T08:39:36;34.10;34.10
24260;DHT22;12384;48.112;18.418;2023-05-07T08:42:11;34.20;33.80
24260;DHT22;12384;48.112;18.418;2023-05-07T08:44:45;34.40;33.40
24260;DHT22;12384;48.112;18.418;2023-05-07T08:47:19;34.60;33.30
24260;DHT22;12384;48.112;18.418;2023-05-07T08:49:50;34.90;32.80
24260;DHT22;12384;48.112;18.418;2023-05-07T08:52:19;35.00;31.80
24260;DHT22;12384;48.112;18.418;2023-05-07T08:54:48;35.00;30.80
24260;DHT22;12384;48.112;18.418;2023-05-07T08:57:18;35.00;30.40
24260;DHT22;12384;48.112;18.418;2023-05-07T08:59:47;34.90;30.20
24260;DHT22;12384;48.112;18.418;2023-05-07T09:02:15;34.90;30.00
24260;DHT22;12384;48.112;18.418;2023-05-07T09:04:47;34.80;29.80
24260;DHT22;12384;48.112;18.418;2023-05-07T09:07:16;34.80;29.70
24260;DHT22;12384;48.112;18.418;2023-05-07T09:09:46;34.80;29.80
24260;DHT22;12384;48.112;18.418;2023-05-07T09:12:15;34.80;29.30
24260;DHT22;12384;48.112;18.418;2023-05-07T09:14:43;34.70;29.50
24260;DHT22;12384;48.112;18.418;2023-05-07T09:17:13;34.70;29.90
24260;DHT22;12384;48.112;18.418;2023-05-07T09:19:43;34.80;29.80
24260;DHT22;12384;48.112;18.418;2023-05-07T09:22:15;34.80;29.70
24260;DHT22;12384;48.112;18.418;2023-05-07T09:24:53;34.90;29.70
24260;DHT22;12384;48.112;18.418;2023-05-07T09:27:25;34.90;29.70
24260;DHT22;12384;48.112;18.418;2023-05-07T09:29:55;35.00;29.60
24260;DHT22;12384;48.112;18.418;2023-05-07T09:32:25;35.10;29.50
24260;DHT22;12384;48.112;18.418;2023-05-07T09:34:54;35.10;29.40
24260;DHT22;12384;48.112;18.418;2023-05-07T09:37:26;35.10;28.90
24260;DHT22;12384;48.112;18.418;2023-05-07T09:39:54;35.20;28.70
24260;DHT22;12384;48.112;18.418;2023-05-07T09:42:24;35.10;28.80
24260;DHT22;12384;48.112;18.418;2023-05-07T09:44:56;35.10;28.90
24260;DHT22;12384;48.112;18.418;2023-05-07T09:47:32;35.10;28.90
24260;DHT22;12384;48.112;18.418;2023-05-07T09:50:05;35.10;29.10
24260;DHT22;12384;48.112;18.418;2023-05-07T09:52:36;35.20;29.20
24260;DHT22;12384;48.112;18.418;2023-05-07T09:55:09;35.20;29.20
24260;DHT22;12384;48.112;18.418;2023-05-07T09:57:39;35.20;29.20
24260;DHT22;12384;48.112;18.418;2023-05-07T10:00:09;35.20;29.00
24260;DHT22;12384;48.112;18.418;2023-05-07T10:02:50;35.10;28.70
24260;DHT22;12384;48.112;18.418;2023-05-07T10:05:32;35.10;29.10
24260;DHT22;12384;48.112;18.418;2023-05-07T10:08:03;35.10;29.00
24260;DHT22;12384;48.112;18.418;2023-05-07T10:10:36;35.00;28.80
24260;DHT22;12384;48.112;18.418;2023-05-07T10:13:09;35.00;28.80
24260;DHT22;12384;48.112;18.418;2023-05-07T10:15:43;34.90;28.60
24260;DHT22;12384;48.112;18.418;2023-05-07T10:18:12;34.90;28.60
24260;DHT22;12384;48.112;18.418;2023-05-07T10:20:47;34.80;28.60
24260;DHT22;12384;48.112;18.418;2023-05-07T10:23:23;34.70;28.30
24260;DHT22;12384;48.112;18.418;2023-05-07T10:25:57;34.60;28.00
24260;DHT22;12384;48.112;18.418;2023-05-07T10:28:33;34.40;28.10
24260;DHT22;12384;48.112;18.418;2023-05-07T10:31:15;34.40;28.40
24260;DHT22;12384;48.112;18.418;2023-05-07T10:33:49;34.20;28.60
24260;DHT22;12384;48.112;18.418;2023-05-07T10:36:22;34.20;28.50
24260;DHT22;12384;48.112;18.418;2023-05-07T10:38:54;34.10;28.50
24260;DHT22;12384;48.112;18.418;2023-05-07T10:41:24;34.10;28.50
24260;DHT22;12384;48.112;18.418;2023-05-07T10:43:53;34.10;28.60
24260;DHT22;12384;48.112;18.418;2023-05-07T10:46:29;34.10;28.40
24260;DHT22;12384;48.112;18.418;2023-05-07T10:49:08;34.10;28.50
24260;DHT22;12384;48.112;18.418;2023-05-07T10:52:11;34.20;28.30
24260;DHT22;12384;48.112;18.418;2023-05-07T10:54:43;34.20;28.20
24260;DHT22;12384;48.112;18.418;2023-05-07T10:57:33;34.20;28.40
24260;DHT22;12384;48.112;18.418;2023-05-07T11:00:41;34.20;28.00
24260;DHT22;12384;48.112;18.418;2023-05-07T11:03:18;34.20;27.90
24260;DHT22;12384;48.112;18.418;2023-05-07T11:06:10;34.20;27.90
24260;DHT22;12384;48.112;18.418;2023-05-07T11:08:55;34.20;27.50
24260;DHT22;12384;48.112;18.418;2023-05-07T11:11:47;34.10;27.40
24260;DHT22;12384;48.112;18.418;2023-05-07T11:14:45;34.10;27.40
24260;DHT22;12384;48.112;18.418;2023-05-07T11:17:18;34.00;27.10
24260;DHT22;12384;48.112;18.418;2023-05-07T11:19:55;33.90;27.10
24260;DHT22;12384;48.112;18.418;2023-05-07T11:22:36;33.70;27.10
24260;DHT22;12384;48.112;18.418;2023-05-07T11:25:19;33.70;27.30
24260;DHT22;12384;48.112;18.418;2023-05-07T11:27:56;33.60;27.30
24260;DHT22;12384;48.112;18.418;2023-05-07T11:30:32;33.60;27.50
24260;DHT22;12384;48.112;18.418;2023-05-07T11:33:01;33.70;27.70
24260;DHT22;12384;48.112;18.418;2023-05-07T11:35:30;33.80;27.70
24260;DHT22;12384;48.112;18.418;2023-05-07T11:38:04;33.90;27.80
24260;DHT22;12384;48.112;18.418;2023-05-07T11:40:34;34.00;27.30
24260;DHT22;12384;48.112;18.418;2023-05-07T11:43:11;34.10;27.30
24260;DHT22;12384;48.112;18.418;2023-05-07T11:45:40;34.30;27.40
24260;DHT22;12384;48.112;18.418;2023-05-07T11:48:08;34.40;27.50
24260;DHT22;12384;48.112;18.418;2023-05-07T11:50:50;34.50;27.10
24260;DHT22;12384;48.112;18.418;2023-05-07T11:53:19;34.60;27.10
24260;DHT22;12384;48.112;18.418;2023-05-07T11:55:52;34.70;27.00
24260;DHT22;12384;48.112;18.418;2023-05-07T11:58:23;34.70;26.50
24260;DHT22;12384;48.112;18.418;2023-05-07T12:00:53;34.80;26.20
24260;DHT22;12384;48.112;18.418;2023-05-07T12:03:21;34.90;26.30
24260;DHT22;12384;48.112;18.418;2023-05-07T12:05:50;35.00;26.50
24260;DHT22;12384;48.112;18.418;2023-05-07T12:08:20;35.10;26.10
24260;DHT22;12384;48.112;18.418;2023-05-07T12:10:50;35.20;25.50
24260;DHT22;12384;48.112;18.418;2023-05-07T12:13:19;35.30;25.80
24260;DHT22;12384;48.112;18.418;2023-05-07T12:15:52;35.40;25.70
24260;DHT22;12384;48.112;18.418;2023-05-07T12:18:21;35.50;25.20
24260;DHT22;12384;48.112;18.418;2023-05-07T12:20:50;35.50;25.10
24260;DHT22;12384;48.112;18.418;2023-05-07T12:23:19;35.40;25.10
24260;DHT22;12384;48.112;18.418;2023-05-07T12:25:48;35.40;25.00
24260;DHT22;12384;48.112;18.418;2023-05-07T12:28:18;35.40;25.40
24260;DHT22;12384;48.112;18.418;2023-05-07T12:30:48;35.50;25.40
24260;DHT22;12384;48.112;18.418;2023-05-07T12:33:24;35.60;25.30
24260;DHT22;12384;48.112;18.418;2023-05-07T12:35:54;35.60;25.20
24260;DHT22;12384;48.112;18.418;2023-05-07T12:38:23;35.50;25.10
24260;DHT22;12384;48.112;18.418;2023-05-07T12:40:54;35.50;25.10
24260;DHT22;12384;48.112;18.418;2023-05-07T12:43:26;35.50;25.20
24260;DHT22;12384;48.112;18.418;2023-05-07T12:45:56;35.60;25.00
24260;DHT22;12384;48.112;18.418;2023-05-07T12:48:27;35.60;25.10
24260;DHT22;12384;48.112;18.418;2023-05-07T12:50:57;35.60;25.10
24260;DHT22;12384;48.112;18.418;2023-05-07T12:53:26;35.50;24.80
24260;DHT22;12384;48.112;18.418;2023-05-07T12:55:57;35.30;24.90
24260;DHT22;12384;48.112;18.418;2023-05-07T12:58:28;35.20;25.10
24260;DHT22;12384;48.112;18.418;2023-05-07T13:00:58;35.20;25.20
24260;DHT22;12384;48.112;18.418;2023-05-07T13:03:30;35.20;25.20
24260;DHT22;12384;48.112;18.418;2023-05-07T13:06:01;35.20;25.10
24260;DHT22;12384;48.112;18.418;2023-05-07T13:08:31;35.30;25.20
24260;DHT22;12384;48.112;18.418;2023-05-07T13:11:01;35.30;25.00
24260;DHT22;12384;48.112;18.418;2023-05-07T13:13:31;35.30;25.10
24260;DHT22;12384;48.112;18.418;2023-05-07T13:16:00;35.40;25.10
24260;DHT22;12384;48.112;18.418;2023-05-07T13:18:31;35.50;25.80
24260;DHT22;12384;48.112;18.418;2023-05-07T13:21:01;35.60;25.20
24260;DHT22;12384;48.112;18.418;2023-05-07T13:23:29;35.70;24.80
24260;DHT22;12384;48.112;18.418;2023-05-07T13:25:58;35.70;24.70
24260;DHT22;12384;48.112;18.418;2023-05-07T13:28:32;35.70;24.70
24260;DHT22;12384;48.112;18.418;2023-05-07T13:31:01;35.60;24.60
24260;DHT22;12384;48.112;18.418;2023-05-07T13:33:31;35.30;24.40
24260;DHT22;12384;48.112;18.418;2023-05-07T13:35:59;35.00;24.60
24260;DHT22;12384;48.112;18.418;2023-05-07T13:38:29;34.80;24.80
24260;DHT22;12384;48.112;18.418;2023-05-07T13:40:58;34.60;25.30
24260;DHT22;12384;48.112;18.418;2023-05-07T13:43:26;34.60;25.50
24260;DHT22;12384;48.112;18.418;2023-05-07T13:45:55;34.70;25.70
24260;DHT22;12384;48.112;18.418;2023-05-07T13:48:23;34.70;25.20
24260;DHT22;12384;48.112;18.418;2023-05-07T13:50:53;34.60;24.80
24260;DHT22;12384;48.112;18.418;2023-05-07T13:53:22;34.30;24.70
24260;DHT22;12384;48.112;18.418;2023-05-07T13:55:50;33.80;24.80
24260;DHT22;12384;48.112;18.418;2023-05-07T13:58:19;33.30;24.70
24260;DHT22;12384;48.112;18.418;2023-05-07T14:00:47;32.70;25.00
24260;DHT22;12384;48.112;18.418;2023-05-07T14:03:16;32.10;25.20
24260;DHT22;12384;48.112;18.418;2023-05-07T14:05:44;31.40;25.40
24260;DHT22;12384;48.112;18.418;2023-05-07T14:08:17;30.80;25.80
24260;DHT22;12384;48.112;18.418;2023-05-07T14:10:47;30.20;26.30
24260;DHT22;12384;48.112;18.418;2023-05-07T14:13:15;29.60;26.80
24260;DHT22;12384;48.112;18.418;2023-05-07T14:15:43;29.10;27.50
24260;DHT22;12384;48.112;18.418;2023-05-07T14:18:14;28.60;28.10
24260;DHT22;12384;48.112;18.418;2023-05-07T14:20:42;28.10;28.60
24260;DHT22;12384;48.112;18.418;2023-05-07T14:23:13;27.70;28.80
24260;DHT22;12384;48.112;18.418;2023-05-07T14:25:43;27.40;29.20
24260;DHT22;12384;48.112;18.418;2023-05-07T14:28:13;27.00;29.60
24260;DHT22;12384;48.112;18.418;2023-05-07T14:30:41;26.70;29.90
24260;DHT22;12384;48.112;18.418;2023-05-07T14:33:10;26.40;30.00
24260;DHT22;12384;48.112;18.418;2023-05-07T14:35:38;26.20;30.60
24260;DHT22;12384;48.112;18.418;2023-05-07T14:38:07;25.90;31.00
24260;DHT22;12384;48.112;18.418;2023-05-07T14:40:35;25.70;31.30
24260;DHT22;12384;48.112;18.418;2023-05-07T14:43:05;25.50;31.60
24260;DHT22;12384;48.112;18.418;2023-05-07T14:45:33;25.30;31.80
24260;DHT22;12384;48.112;18.418;2023-05-07T14:48:02;25.10;32.20
24260;DHT22;12384;48.112;18.418;2023-05-07T14:50:31;25.00;32.90
24260;DHT22;12384;48.112;18.418;2023-05-07T14:52:59;24.80;33.10
24260;DHT22;12384;48.112;18.418;2023-05-07T14:55:27;24.70;33.10
24260;DHT22;12384;48.112;18.418;2023-05-07T14:57:56;24.50;33.10
24260;DHT22;12384;48.112;18.418;2023-05-07T15:00:26;24.40;33.30
24260;DHT22;12384;48.112;18.418;2023-05-07T15:02:55;24.30;33.60
24260;DHT22;12384;48.112;18.418;2023-05-07T15:05:28;24.20;33.70
24260;DHT22;12384;48.112;18.418;2023-05-07T15:07:56;24.00;34.00
24260;DHT22;12384;48.112;18.418;2023-05-07T15:10:25;23.90;34.30
24260;DHT22;12384;48.112;18.418;2023-05-07T15:12:53;23.80;34.50
24260;DHT22;12384;48.112;18.418;2023-05-07T15:15:22;23.70;34.60
24260;DHT22;12384;48.112;18.418;2023-05-07T15:17:53;23.60;34.80
24260;DHT22;12384;48.112;18.418;2023-05-07T15:20:21;23.50;35.00
24260;DHT22;12384;48.112;18.418;2023-05-07T15:22:50;23.40;35.10
24260;DHT22;12384;48.112;18.418;2023-05-07T15:25:18;23.40;35.30
24260;DHT22;12384;48.112;18.418;2023-05-07T15:27:47;23.20;35.30
24260;DHT22;12384;48.112;18.418;2023-05-07T15:30:16;23.10;35.50
24260;DHT22;12384;48.112;18.418;2023-05-07T15:32:47;23.00;35.80
24260;DHT22;12384;48.112;18.418;2023-05-07T15:35:17;22.90;35.80
24260;DHT22;12384;48.112;18.418;2023-05-07T15:37:49;22.80;36.00